createdAt,value
2023-04-03T00:00:23.216Z,24.31
2023-04-03T00:01:23.202Z,24.31
2023-04-03T00:02:23.254Z,24.29
2023-04-03T00:03:23.276Z,24.30
2023-04-03T00:04:23.336Z,24.29
2023-04-03T00:05:23.366Z,24.29
2023-04-03T00:06:23.340Z,24.29
2023-04-03T00:07:23.346Z,24.29
2023-04-03T00:08:23.419Z,24.29
2023-04-03T00:09:23.468Z,24.29
2023-04-03T00:10:23.465Z,24.28
2023-04-03T00:11:23.473Z,24.28
2023-04-03T00:12:23.531Z,24.29
2023-04-03T00:13:23.536Z,24.28
2023-04-03T00:14:23.626Z,24.29
2023-04-03T00:15:23.606Z,24.28
2023-04-03T00:16:23.673Z,24.28
2023-04-03T00:17:23.673Z,24.28
2023-04-03T00:18:23.722Z,24.28
2023-04-03T00:19:23.760Z,24.29
2023-04-03T00:20:23.793Z,24.28
2023-04-03T00:21:23.818Z,24.27
2023-04-03T00:22:23.856Z,24.28
2023-04-03T00:23:23.915Z,24.27
2023-04-03T00:24:23.911Z,24.27
2023-04-03T00:25:23.934Z,24.27
2023-04-03T00:26:23.975Z,24.27
2023-04-03T00:27:24.034Z,24.28
2023-04-03T00:28:24.076Z,24.27
2023-04-03T00:29:24.127Z,24.28
2023-04-03T00:30:24.110Z,24.27
2023-04-03T00:31:24.205Z,24.27
2023-04-03T00:32:24.189Z,24.27
2023-04-03T00:33:24.191Z,24.27
2023-04-03T00:34:24.246Z,24.26
2023-04-03T00:35:24.286Z,24.26
2023-04-03T00:36:24.359Z,24.26
2023-04-03T00:37:24.415Z,24.25
2023-04-03T00:38:24.402Z,24.26
2023-04-03T00:39:24.418Z,24.26
2023-04-03T00:40:24.432Z,24.25
2023-04-03T00:41:24.466Z,24.25
2023-04-03T00:42:24.551Z,24.25
2023-04-03T00:43:24.573Z,24.25
2023-04-03T00:44:24.596Z,24.25
2023-04-03T00:45:24.673Z,24.25
2023-04-03T00:46:24.738Z,24.25
2023-04-03T00:47:24.805Z,24.25
2023-04-03T00:48:24.727Z,24.25
2023-04-03T00:49:24.748Z,24.25
2023-04-03T00:50:24.824Z,24.24
2023-04-03T00:51:24.824Z,24.24
2023-04-03T00:52:24.916Z,24.25
2023-04-03T00:53:24.927Z,24.24
2023-04-03T00:54:24.940Z,24.24
2023-04-03T00:55:24.977Z,24.24
2023-04-03T00:56:24.997Z,24.23
2023-04-03T00:57:25.101Z,24.24
2023-04-03T00:58:25.159Z,24.24
2023-04-03T00:59:25.124Z,24.23
2023-04-03T01:00:25.171Z,24.23
2023-04-03T01:01:25.218Z,24.23
2023-04-03T01:02:25.265Z,24.23
2023-04-03T01:03:25.272Z,24.22
2023-04-03T01:04:25.356Z,24.23
2023-04-03T01:05:25.344Z,24.23
2023-04-03T01:06:25.419Z,24.23
2023-04-03T01:07:25.427Z,24.23
2023-04-03T01:08:25.466Z,24.22
2023-04-03T01:09:25.502Z,24.22
2023-04-03T01:10:25.551Z,24.21
2023-04-03T01:11:25.589Z,24.22
2023-04-03T01:12:25.622Z,24.21
2023-04-03T01:13:25.675Z,24.21
2023-04-03T01:14:25.693Z,24.21
2023-04-03T01:15:25.726Z,24.22
2023-04-03T01:16:25.784Z,24.21
2023-04-03T01:17:25.850Z,24.21
2023-04-03T01:18:25.850Z,24.21
2023-04-03T01:19:25.874Z,24.22
2023-04-03T01:20:25.936Z,24.20
2023-04-03T01:21:25.922Z,24.21
2023-04-03T01:22:26.007Z,24.21
2023-04-03T01:23:26.044Z,24.21
2023-04-03T01:24:26.075Z,24.21
2023-04-03T01:25:26.134Z,24.21
2023-04-03T01:26:26.126Z,24.20
2023-04-03T01:27:26.180Z,24.20
2023-04-03T01:28:26.236Z,24.20
2023-04-03T01:29:26.287Z,24.20
2023-04-03T01:30:26.317Z,24.20
2023-04-03T01:31:26.409Z,24.20
2023-04-03T01:32:26.433Z,24.19
2023-04-03T01:33:26.455Z,24.19
2023-04-03T01:34:26.471Z,24.19
2023-04-03T01:35:26.511Z,24.19
2023-04-03T01:36:26.549Z,24.19
2023-04-03T01:37:26.648Z,24.19
2023-04-03T01:38:26.626Z,24.19
2023-04-03T01:39:26.688Z,24.18
2023-04-03T01:40:26.750Z,24.18
2023-04-03T01:41:26.750Z,24.18
2023-04-03T01:42:26.795Z,24.19
2023-04-03T01:43:26.814Z,24.19
2023-04-03T01:44:26.941Z,24.17
2023-04-03T01:45:26.932Z,24.18
2023-04-03T01:46:26.979Z,24.18
2023-04-03T01:47:27.068Z,24.18
2023-04-03T01:48:27.036Z,24.18
2023-04-03T01:49:27.071Z,24.18
2023-04-03T01:50:27.147Z,24.17
2023-04-03T01:51:27.178Z,24.18
2023-04-03T01:52:27.173Z,24.18
2023-04-03T01:53:27.273Z,24.17
2023-04-03T01:54:27.288Z,24.17
2023-04-03T01:55:27.333Z,24.17
2023-04-03T01:56:27.371Z,24.17
2023-04-03T01:57:27.429Z,24.16
2023-04-03T01:58:27.450Z,24.16
2023-04-03T01:59:27.498Z,24.17
2023-04-03T02:00:27.536Z,24.17
2023-04-03T02:01:27.581Z,24.16
2023-04-03T02:02:27.604Z,24.17
2023-04-03T02:03:27.670Z,24.17
2023-04-03T02:04:27.790Z,24.17
2023-04-03T02:05:27.709Z,24.16
2023-04-03T02:06:27.770Z,24.15
2023-04-03T02:07:27.812Z,24.17
2023-04-03T02:08:27.863Z,24.16
2023-04-03T02:09:27.878Z,24.15
2023-04-03T02:10:27.943Z,24.16
2023-04-03T02:11:27.976Z,24.15
2023-04-03T02:12:28.017Z,24.15
2023-04-03T02:13:28.061Z,24.15
2023-04-03T02:14:28.201Z,24.15
2023-04-03T02:15:28.169Z,24.16
2023-04-03T02:16:28.208Z,24.14
2023-04-03T02:17:28.308Z,24.14
2023-04-03T02:18:28.293Z,24.14
2023-04-03T02:19:28.412Z,24.15
2023-04-03T02:20:28.424Z,24.15
2023-04-03T02:21:28.459Z,24.15
2023-04-03T02:22:28.505Z,24.14
2023-04-03T02:23:28.586Z,24.14
2023-04-03T02:24:28.592Z,24.14
2023-04-03T02:25:28.634Z,24.13
2023-04-03T02:26:28.688Z,24.14
2023-04-03T02:27:28.770Z,24.14
2023-04-03T02:28:28.822Z,24.14
2023-04-03T02:29:28.818Z,24.13
2023-04-03T02:30:28.895Z,24.14
2023-04-03T02:31:29.025Z,24.13
2023-04-03T02:32:29.048Z,24.14
2023-04-03T02:33:29.017Z,24.14
2023-04-03T02:34:29.069Z,24.13
2023-04-03T02:35:29.159Z,24.13
2023-04-03T02:36:30.584Z,24.12
2023-04-03T02:37:29.314Z,24.13
2023-04-03T02:38:29.396Z,24.13
2023-04-03T02:39:29.419Z,24.12
2023-04-03T02:40:29.423Z,24.12
2023-04-03T02:41:29.471Z,24.11
2023-04-03T02:42:29.487Z,24.12
2023-04-03T02:43:29.566Z,24.12
2023-04-03T02:44:29.527Z,24.12
2023-04-03T02:45:29.593Z,24.12
2023-04-03T02:46:29.684Z,24.12
2023-04-03T02:47:29.686Z,24.12
2023-04-03T02:48:29.672Z,24.11
2023-04-03T02:49:29.732Z,24.12
2023-04-03T02:50:29.765Z,24.12
2023-04-03T02:51:29.810Z,24.12
2023-04-03T02:52:29.817Z,24.12
2023-04-03T02:53:29.860Z,24.12
2023-04-03T02:54:29.878Z,24.12
2023-04-03T02:55:29.954Z,24.11
2023-04-03T02:56:29.969Z,24.11
2023-04-03T02:57:30.029Z,24.11
2023-04-03T02:58:30.059Z,24.11
2023-04-03T02:59:30.051Z,24.11
2023-04-03T03:00:30.098Z,24.10
2023-04-03T03:01:30.149Z,24.10
2023-04-03T03:02:30.203Z,24.10
2023-04-03T03:03:30.185Z,24.11
2023-04-03T03:04:30.296Z,24.10
2023-04-03T03:05:30.267Z,24.10
2023-04-03T03:06:30.276Z,24.10
2023-04-03T03:07:30.348Z,24.10
2023-04-03T03:08:30.383Z,24.10
2023-04-03T03:09:30.440Z,24.09
2023-04-03T03:10:30.488Z,24.09
2023-04-03T03:11:30.559Z,24.10
2023-04-03T03:12:32.001Z,24.09
2023-04-03T03:13:30.673Z,24.09
2023-04-03T03:14:30.663Z,24.09
2023-04-03T03:15:30.711Z,24.09
2023-04-03T03:16:30.821Z,24.09
2023-04-03T03:17:30.831Z,24.08
2023-04-03T03:18:30.864Z,24.09
2023-04-03T03:19:30.934Z,24.08
2023-04-03T03:20:30.972Z,24.08
2023-04-03T03:21:31.047Z,24.08
2023-04-03T03:22:31.856Z,24.09
2023-04-03T03:23:31.155Z,24.08
2023-04-03T03:24:31.174Z,24.08
2023-04-03T03:25:31.264Z,24.08
2023-04-03T03:26:31.284Z,24.08
2023-04-03T03:27:31.329Z,24.08
2023-04-03T03:28:31.411Z,24.07
2023-04-03T03:29:31.452Z,24.07
2023-04-03T03:30:31.500Z,24.07
2023-04-03T03:31:31.546Z,24.07
2023-04-03T03:32:31.583Z,24.07
2023-04-03T03:33:31.674Z,24.06
2023-04-03T03:34:31.714Z,24.07
2023-04-03T03:35:31.769Z,24.07
2023-04-03T03:36:31.839Z,24.06
2023-04-03T03:37:31.889Z,24.06
2023-04-03T03:38:31.956Z,24.06
2023-04-03T03:39:32.023Z,24.07
2023-04-03T03:40:32.065Z,24.06
2023-04-03T03:41:32.146Z,24.06
2023-04-03T03:42:32.217Z,24.06
2023-04-03T03:43:32.194Z,24.06
2023-04-03T03:44:32.307Z,24.06
2023-04-03T03:45:32.311Z,24.06
2023-04-03T03:46:32.418Z,24.06
2023-04-03T03:47:32.505Z,24.05
2023-04-03T03:48:32.465Z,24.05
2023-04-03T03:49:32.607Z,24.05
2023-04-03T03:50:32.582Z,24.05
2023-04-03T03:51:32.664Z,24.05
2023-04-03T03:52:32.717Z,24.05
2023-04-03T03:53:32.782Z,24.05
2023-04-03T03:54:32.848Z,24.05
2023-04-03T03:55:32.892Z,24.05
2023-04-03T03:56:32.923Z,24.05
2023-04-03T03:57:33.085Z,24.05
2023-04-03T03:58:33.132Z,24.05
2023-04-03T03:59:33.140Z,24.05
2023-04-03T04:00:33.161Z,24.04
2023-04-03T04:01:33.283Z,24.04
2023-04-03T04:02:33.366Z,24.04
2023-04-03T04:03:33.395Z,24.05
2023-04-03T04:04:33.410Z,24.04
2023-04-03T04:05:33.475Z,24.03
2023-04-03T04:06:33.513Z,24.03
2023-04-03T04:07:33.595Z,24.03
2023-04-03T04:08:33.638Z,24.02
2023-04-03T04:09:33.640Z,24.01
2023-04-03T04:10:33.710Z,24.01
2023-04-03T04:11:33.755Z,24.00
2023-04-03T04:12:33.764Z,23.99
2023-04-03T04:13:33.834Z,23.98
2023-04-03T04:14:33.883Z,23.97
2023-04-03T04:15:33.969Z,23.99
2023-04-03T04:16:34.030Z,23.98
2023-04-03T04:17:34.048Z,23.97
2023-04-03T04:18:34.075Z,23.97
2023-04-03T04:19:34.122Z,23.97
2023-04-03T04:20:34.215Z,23.97
2023-04-03T04:21:34.260Z,23.95
2023-04-03T04:22:34.305Z,23.95
2023-04-03T04:23:34.322Z,23.93
2023-04-03T04:24:34.427Z,23.92
2023-04-03T04:25:34.668Z,23.93
2023-04-03T04:26:34.536Z,23.92
2023-04-03T04:27:34.583Z,23.91
2023-04-03T04:28:34.652Z,23.91
2023-04-03T04:29:34.685Z,23.91
2023-04-03T04:30:34.780Z,23.90
2023-04-03T04:31:34.831Z,23.90
2023-04-03T04:32:34.850Z,23.89
2023-04-03T04:33:34.882Z,23.89
2023-04-03T04:34:34.958Z,23.89
2023-04-03T04:35:35.184Z,23.89
2023-04-03T04:36:35.093Z,23.89
2023-04-03T04:37:35.130Z,23.89
2023-04-03T04:38:35.155Z,23.89
2023-04-03T04:39:35.240Z,23.90
2023-04-03T04:40:35.295Z,23.90
2023-04-03T04:41:35.399Z,23.90
2023-04-03T04:42:35.488Z,23.91
2023-04-03T04:43:35.505Z,23.91
2023-04-03T04:44:35.573Z,23.90
2023-04-03T04:45:35.909Z,23.91
2023-04-03T04:46:35.787Z,23.90
2023-04-03T04:47:35.790Z,23.91
2023-04-03T04:48:35.816Z,23.91
2023-04-03T04:49:35.861Z,23.91
2023-04-03T04:50:35.935Z,23.90
2023-04-03T04:51:48.403Z,23.91
2023-04-03T04:52:36.961Z,23.91
2023-04-03T04:53:35.945Z,23.91
2023-04-03T04:54:35.946Z,23.91
2023-04-03T04:55:36.151Z,23.91
2023-04-03T04:56:35.918Z,23.92
2023-04-03T04:57:35.953Z,23.91
2023-04-03T04:58:35.932Z,23.92
2023-04-03T04:59:35.888Z,23.92
2023-04-03T05:00:35.938Z,23.92
2023-04-03T05:01:35.960Z,23.92
2023-04-03T05:02:36.119Z,23.92
2023-04-03T05:03:36.084Z,23.91
2023-04-03T05:04:36.135Z,23.90
2023-04-03T05:05:36.409Z,23.91
2023-04-03T05:06:36.240Z,23.92
2023-04-03T05:07:36.294Z,23.91
2023-04-03T05:08:36.359Z,23.92
2023-04-03T05:09:36.421Z,23.91
2023-04-03T05:10:36.504Z,23.92
2023-04-03T05:11:36.524Z,23.92
2023-04-03T05:12:36.583Z,23.91
2023-04-03T05:13:36.624Z,23.91
2023-04-03T05:14:36.726Z,23.91
2023-04-03T05:15:36.995Z,23.91
2023-04-03T05:16:36.908Z,23.91
2023-04-03T05:17:36.951Z,23.91
2023-04-03T05:18:36.977Z,23.91
2023-04-03T05:19:37.059Z,23.91
2023-04-03T05:20:37.092Z,23.91
2023-04-03T05:21:37.169Z,23.91
2023-04-03T05:22:37.219Z,23.91
2023-04-03T05:23:37.302Z,23.91
2023-04-03T05:24:37.404Z,23.91
2023-04-03T05:25:37.705Z,23.91
2023-04-03T05:26:37.514Z,23.91
2023-04-03T05:27:37.543Z,23.91
2023-04-03T05:28:37.620Z,23.91
2023-04-03T05:29:37.684Z,23.91
2023-04-03T05:30:37.731Z,23.91
2023-04-03T05:31:37.847Z,23.91
2023-04-03T05:32:37.903Z,23.91
2023-04-03T05:33:37.976Z,23.91
2023-04-03T05:34:38.017Z,23.91
2023-04-03T05:35:38.372Z,23.91
2023-04-03T05:36:38.133Z,23.92
2023-04-03T05:37:38.189Z,23.91
2023-04-03T05:38:38.244Z,23.92
2023-04-03T05:39:38.390Z,23.91
2023-04-03T05:40:38.432Z,23.91
2023-04-03T05:41:38.444Z,23.91
2023-04-03T05:42:38.527Z,23.91
2023-04-03T05:43:38.564Z,23.91
2023-04-03T05:44:38.580Z,23.91
2023-04-03T05:45:38.680Z,23.91
2023-04-03T05:46:38.758Z,23.91
2023-04-03T05:47:38.872Z,23.90
2023-04-03T05:48:38.889Z,23.91
2023-04-03T05:49:38.937Z,23.92
2023-04-03T05:50:38.996Z,23.91
2023-04-03T05:51:39.054Z,23.92
2023-04-03T05:52:39.104Z,23.91
2023-04-03T05:53:39.190Z,23.91
2023-04-03T05:54:39.241Z,23.91
2023-04-03T05:55:39.434Z,23.91
2023-04-03T05:56:39.339Z,23.92
2023-04-03T05:57:39.443Z,23.92
2023-04-03T05:58:39.479Z,23.91
2023-04-03T05:59:39.494Z,23.92
2023-04-03T06:00:39.575Z,23.91
2023-04-03T06:01:39.617Z,23.91
2023-04-03T06:02:39.784Z,23.92
2023-04-03T06:03:40.591Z,23.92
2023-04-03T06:04:39.885Z,23.92
2023-04-03T06:05:40.131Z,23.92
2023-04-03T06:06:39.968Z,23.92
2023-04-03T06:07:40.037Z,23.92
2023-04-03T06:08:40.072Z,23.93
2023-04-03T06:09:40.107Z,23.92
2023-04-03T06:10:40.533Z,23.93
2023-04-03T06:11:40.251Z,23.92
2023-04-03T06:12:40.327Z,23.92
2023-04-03T06:13:40.366Z,23.93
2023-04-03T06:14:40.458Z,23.92
2023-04-03T06:15:40.519Z,23.92
2023-04-03T06:16:40.611Z,23.93
2023-04-03T06:17:40.745Z,23.94
2023-04-03T06:18:40.670Z,23.94
2023-04-03T06:19:40.784Z,23.93
2023-04-03T06:20:41.024Z,23.93
2023-04-03T06:21:40.887Z,23.94
2023-04-03T06:22:40.899Z,23.94
2023-04-03T06:23:40.961Z,23.94
2023-04-03T06:24:41.039Z,23.94
2023-04-03T06:25:41.071Z,23.94
2023-04-03T06:26:41.390Z,23.95
2023-04-03T06:27:41.245Z,23.94
2023-04-03T06:28:41.307Z,23.97
2023-04-03T06:29:41.346Z,23.96
2023-04-03T06:30:41.408Z,23.95
2023-04-03T06:31:41.456Z,23.97
2023-04-03T06:32:41.590Z,23.96
2023-04-03T06:33:41.599Z,23.97
2023-04-03T06:34:41.647Z,23.97
2023-04-03T06:35:41.736Z,23.97
2023-04-03T06:36:41.772Z,23.97
2023-04-03T06:37:41.813Z,23.98
2023-04-03T06:38:41.838Z,23.98
2023-04-03T06:39:41.928Z,23.97
2023-04-03T06:40:42.007Z,23.97
2023-04-03T06:41:42.040Z,23.97
2023-04-03T06:42:42.107Z,23.98
2023-04-03T06:43:42.229Z,23.97
2023-04-03T06:44:42.274Z,23.99
2023-04-03T06:45:42.336Z,23.98
2023-04-03T06:46:42.392Z,23.98
2023-04-03T06:47:42.496Z,23.99
2023-04-03T06:48:42.516Z,23.98
2023-04-03T06:49:42.572Z,23.99
2023-04-03T06:50:42.619Z,23.98
2023-04-03T06:51:42.698Z,23.98
2023-04-03T06:52:42.728Z,23.99
2023-04-03T06:53:42.801Z,23.99
2023-04-03T06:54:42.862Z,23.99
2023-04-03T06:55:42.912Z,24.00
2023-04-03T06:56:43.024Z,24.00
2023-04-03T06:57:43.021Z,24.00
2023-04-03T06:58:43.109Z,24.00
2023-04-03T06:59:43.213Z,24.01
2023-04-03T07:00:43.222Z,24.01
2023-04-03T07:01:43.355Z,24.01
2023-04-03T07:02:43.379Z,24.00
2023-04-03T07:03:43.418Z,24.01
2023-04-03T07:04:43.541Z,24.00
2023-04-03T07:05:43.522Z,24.01
2023-04-03T07:06:43.601Z,24.01
2023-04-03T07:07:43.671Z,24.01
2023-04-03T07:08:43.783Z,24.01
2023-04-03T07:09:45.190Z,24.02
2023-04-03T07:10:43.841Z,24.01
2023-04-03T07:11:43.949Z,24.02
2023-04-03T07:12:43.948Z,24.02
2023-04-03T07:13:44.006Z,24.01
2023-04-03T07:14:44.072Z,24.02
2023-04-03T07:15:44.191Z,24.01
2023-04-03T07:16:44.195Z,24.01
2023-04-03T07:17:44.274Z,24.02
2023-04-03T07:18:44.355Z,24.02
2023-04-03T07:19:44.414Z,24.02
2023-04-03T07:20:44.463Z,24.03
2023-04-03T07:21:44.571Z,24.02
2023-04-03T07:22:44.555Z,24.03
2023-04-03T07:23:44.592Z,24.03
2023-04-03T07:24:44.698Z,24.02
2023-04-03T07:25:44.720Z,24.03
2023-04-03T07:26:44.836Z,24.03
2023-04-03T07:27:44.805Z,24.04
2023-04-03T07:28:44.840Z,24.04
2023-04-03T07:29:44.940Z,24.04
2023-04-03T07:30:44.961Z,24.04
2023-04-03T07:31:45.044Z,24.05
2023-04-03T07:32:45.124Z,24.04
2023-04-03T07:33:45.129Z,24.04
2023-04-03T07:34:45.146Z,24.05
2023-04-03T07:35:45.299Z,24.05
2023-04-03T07:36:45.236Z,24.05
2023-04-03T07:37:45.277Z,24.06
2023-04-03T07:38:45.363Z,24.06
2023-04-03T07:39:45.366Z,24.05
2023-04-03T07:40:45.396Z,24.05
2023-04-03T07:41:45.485Z,24.06
2023-04-03T07:42:45.527Z,24.06
2023-04-03T07:43:45.560Z,24.06
2023-04-03T07:44:45.669Z,24.06
2023-04-03T07:45:45.690Z,24.07
2023-04-03T07:46:45.746Z,24.06
2023-04-03T07:47:45.813Z,24.07
2023-04-03T07:48:45.822Z,24.06
2023-04-03T07:49:45.904Z,24.06
2023-04-03T07:50:45.893Z,24.07
2023-04-03T07:51:45.963Z,24.07
2023-04-03T07:52:45.988Z,24.07
2023-04-03T07:53:46.082Z,24.07
2023-04-03T07:54:46.093Z,24.07
2023-04-03T07:55:46.148Z,24.07
2023-04-03T07:56:46.204Z,24.08
2023-04-03T07:57:46.251Z,24.08
2023-04-03T07:58:46.280Z,24.09
2023-04-03T07:59:46.329Z,24.08
2023-04-03T08:00:46.363Z,24.09
2023-04-03T08:01:46.420Z,24.09
2023-04-03T08:02:46.557Z,24.09
2023-04-03T08:03:46.622Z,24.10
2023-04-03T08:04:46.660Z,24.10
2023-04-03T08:05:46.601Z,24.10
2023-04-03T08:06:47.287Z,24.11
2023-04-03T08:07:46.691Z,24.12
2023-04-03T08:08:46.747Z,24.11
2023-04-03T08:09:46.812Z,24.11
2023-04-03T08:10:46.805Z,24.12
2023-04-03T08:11:46.884Z,24.12
2023-04-03T08:12:46.932Z,24.12
2023-04-03T08:13:46.962Z,24.12
2023-04-03T08:14:47.024Z,24.13
2023-04-03T08:15:47.049Z,24.13
2023-04-03T08:16:47.184Z,24.14
2023-04-03T08:17:47.164Z,24.13
2023-04-03T08:18:47.164Z,24.13
2023-04-03T08:19:47.234Z,24.14
2023-04-03T08:20:47.284Z,24.14
2023-04-03T08:21:47.316Z,24.15
2023-04-03T08:22:47.391Z,24.15
2023-04-03T08:23:47.417Z,24.16
2023-04-03T08:24:58.411Z,24.16
2023-04-03T08:25:48.512Z,24.17
2023-04-03T08:26:47.435Z,24.17
2023-04-03T08:27:47.432Z,24.17
2023-04-03T08:28:47.424Z,24.18
2023-04-03T08:29:47.449Z,24.18
2023-04-03T08:30:47.445Z,24.19
2023-04-03T08:31:47.408Z,24.18
2023-04-03T08:32:47.403Z,24.19
2023-04-03T08:33:47.399Z,24.20
2023-04-03T08:34:47.383Z,24.20
2023-04-03T08:36:01.953Z,24.21
2023-04-03T08:36:47.483Z,24.19
2023-04-03T08:37:47.505Z,24.20
2023-04-03T08:38:47.569Z,24.21
2023-04-03T08:39:47.606Z,24.22
2023-04-03T08:40:47.587Z,24.22
2023-04-03T08:41:47.649Z,24.23
2023-04-03T08:42:47.663Z,24.24
2023-04-03T08:43:47.744Z,24.24
2023-04-03T08:44:47.739Z,24.25
2023-04-03T08:45:47.899Z,24.26
2023-04-03T08:46:47.935Z,24.27
2023-04-03T08:47:47.931Z,24.28
2023-04-03T08:48:47.905Z,24.28
2023-04-03T08:49:48.214Z,24.29
2023-04-03T08:50:48.024Z,24.30
2023-04-03T08:51:48.030Z,24.32
2023-04-03T08:52:48.078Z,24.32
2023-04-03T08:53:48.151Z,24.33
2023-04-03T08:54:48.163Z,24.34
2023-04-03T08:55:48.187Z,24.35
2023-04-03T08:56:48.243Z,24.37
2023-04-03T08:57:48.269Z,24.38
2023-04-03T08:58:48.293Z,24.39
2023-04-03T08:59:48.300Z,24.40
2023-04-03T09:00:48.348Z,24.41
2023-04-03T09:01:48.505Z,24.44
2023-04-03T09:02:48.653Z,24.46
2023-04-03T09:03:48.459Z,24.47
2023-04-03T09:04:48.448Z,24.49
2023-04-03T09:05:48.419Z,24.49
2023-04-03T09:06:48.449Z,24.51
2023-04-03T09:07:49.787Z,24.53
2023-04-03T09:08:48.474Z,24.53
2023-04-03T09:09:48.478Z,24.55
2023-04-03T09:10:48.485Z,24.57
2023-04-03T09:11:48.508Z,24.59
2023-04-03T09:12:48.505Z,24.59
2023-04-03T09:13:48.486Z,24.59
2023-04-03T09:14:48.496Z,24.61
2023-04-03T09:15:48.612Z,24.62
2023-04-03T09:16:48.576Z,24.62
2023-04-03T09:17:48.638Z,24.62
2023-04-03T09:18:48.616Z,24.63
2023-04-03T09:19:48.538Z,24.63
2023-04-03T09:20:48.545Z,24.64
2023-04-03T09:21:48.549Z,24.65
2023-04-03T09:22:52.198Z,24.65
2023-04-03T09:23:48.530Z,24.65
2023-04-03T09:24:48.548Z,24.65
2023-04-03T09:25:48.507Z,24.66
2023-04-03T09:26:48.531Z,24.65
2023-04-03T09:27:48.521Z,24.67
2023-04-03T09:28:50.443Z,24.67
2023-04-03T09:29:48.500Z,24.67
2023-04-03T09:30:48.512Z,24.68
2023-04-03T09:31:48.544Z,24.68
2023-04-03T09:32:48.660Z,24.68
2023-04-03T09:33:48.508Z,24.69
2023-04-03T09:34:48.625Z,24.69
2023-04-03T09:35:49.128Z,24.68
2023-04-03T09:36:48.567Z,24.69
2023-04-03T09:37:48.572Z,24.70
2023-04-03T09:38:48.529Z,24.70
2023-04-03T09:39:48.527Z,24.70
2023-04-03T09:40:48.541Z,24.69
2023-04-03T09:41:48.532Z,24.70
2023-04-03T09:42:52.138Z,24.70
2023-04-03T09:43:49.524Z,24.70
2023-04-03T09:44:48.499Z,24.70
2023-04-03T09:45:48.538Z,24.70
2023-04-03T09:46:48.542Z,24.72
2023-04-03T09:47:48.509Z,24.71
2023-04-03T09:48:52.211Z,24.72
2023-04-03T09:49:48.504Z,24.73
2023-04-03T09:50:48.545Z,24.73
2023-04-03T09:51:48.501Z,24.72
2023-04-03T09:52:48.437Z,24.72
2023-04-03T09:53:48.455Z,24.73
2023-04-03T09:54:48.466Z,24.73
2023-04-03T09:55:48.435Z,24.74
2023-04-03T09:56:48.435Z,24.74
2023-04-03T09:57:48.420Z,24.75
2023-04-03T09:58:50.882Z,24.75
2023-04-03T09:59:48.396Z,24.75
2023-04-03T10:00:48.415Z,24.75
2023-04-03T10:01:48.419Z,24.75
2023-04-03T10:02:48.387Z,24.76
2023-04-03T10:03:48.531Z,24.77
2023-04-03T10:04:52.992Z,24.77
2023-04-03T10:05:49.373Z,24.76
2023-04-03T10:06:48.475Z,24.77
2023-04-03T10:07:54.786Z,24.77
2023-04-03T10:08:49.341Z,24.76
2023-04-03T10:09:48.370Z,24.77
2023-04-03T10:10:48.328Z,24.77
2023-04-03T10:11:48.338Z,24.78
2023-04-03T10:12:48.353Z,24.77
2023-04-03T10:13:51.201Z,24.78
2023-04-03T10:14:48.286Z,24.78
2023-04-03T10:15:48.304Z,24.79
2023-04-03T10:16:48.313Z,24.78
2023-04-03T10:17:48.347Z,24.79
2023-04-03T10:18:48.288Z,24.80
2023-04-03T10:19:48.237Z,24.81
2023-04-03T10:20:48.305Z,24.81
2023-04-03T10:21:48.242Z,24.81
2023-04-03T10:22:48.338Z,24.82
2023-04-03T10:23:48.220Z,24.83
2023-04-03T10:24:48.224Z,24.83
2023-04-03T10:25:48.221Z,24.84
2023-04-03T10:26:48.199Z,24.84
2023-04-03T10:27:48.201Z,24.85
2023-04-03T10:28:48.204Z,24.85
2023-04-03T10:29:48.184Z,24.86
2023-04-03T10:30:48.202Z,24.87
2023-04-03T10:31:48.155Z,24.87
2023-04-03T10:32:48.171Z,24.87
2023-04-03T10:33:48.172Z,24.88
2023-04-03T10:35:02.388Z,24.88
2023-04-03T10:35:49.180Z,24.88
2023-04-03T10:36:48.122Z,24.88
2023-04-03T10:37:48.150Z,24.89
2023-04-03T10:38:48.229Z,24.90
2023-04-03T10:39:48.130Z,24.91
2023-04-03T10:40:48.108Z,24.92
2023-04-03T10:41:48.088Z,24.92
2023-04-03T10:42:48.136Z,24.92
2023-04-03T10:43:48.084Z,24.92
2023-04-03T10:44:48.111Z,24.92
2023-04-03T10:45:48.138Z,24.93
2023-04-03T10:46:48.109Z,24.93
2023-04-03T10:47:48.199Z,24.95
2023-04-03T10:48:48.196Z,24.95
2023-04-03T10:49:57.202Z,24.97
2023-04-03T10:50:49.309Z,24.97
2023-04-03T10:51:48.307Z,24.97
2023-04-03T10:52:48.256Z,24.98
2023-04-03T10:53:48.272Z,24.98
2023-04-03T10:54:48.390Z,24.98
2023-04-03T10:55:48.266Z,24.99
2023-04-03T10:56:51.175Z,24.98
2023-04-03T10:57:49.297Z,24.99
2023-04-03T10:58:48.244Z,25.00
2023-04-03T10:59:48.258Z,24.99
2023-04-03T11:00:48.203Z,25.00
2023-04-03T11:01:48.267Z,25.01
2023-04-03T11:02:48.234Z,25.02
2023-04-03T11:03:48.329Z,25.02
2023-04-03T11:04:48.206Z,25.02
2023-04-03T11:05:48.293Z,25.03
2023-04-03T11:06:48.348Z,25.04
2023-04-03T11:07:48.412Z,25.04
2023-04-03T11:08:48.479Z,25.04
2023-04-03T11:09:48.546Z,25.05
2023-04-03T11:10:48.705Z,25.05
2023-04-03T11:11:48.655Z,25.06
2023-04-03T11:12:48.752Z,25.07
2023-04-03T11:13:48.756Z,25.07
2023-04-03T11:14:48.871Z,25.08
2023-04-03T11:15:48.965Z,25.09
2023-04-03T11:16:54.062Z,25.09
2023-04-03T11:17:49.979Z,25.08
2023-04-03T11:18:48.947Z,25.09
2023-04-03T11:19:48.932Z,25.10
2023-04-03T11:20:48.900Z,25.10
2023-04-03T11:21:48.933Z,25.09
2023-04-03T11:22:48.867Z,25.09
2023-04-03T11:23:50.206Z,25.10
2023-04-03T11:24:48.874Z,25.09
2023-04-03T11:25:48.949Z,25.10
2023-04-03T11:26:49.131Z,25.09
2023-04-03T11:27:49.061Z,25.09
2023-04-03T11:28:49.108Z,25.10
2023-04-03T11:29:49.171Z,25.10
2023-04-03T11:30:49.246Z,25.09
2023-04-03T11:31:49.288Z,25.10
2023-04-03T11:32:49.354Z,25.11
2023-04-03T11:33:49.408Z,25.11
2023-04-03T11:34:49.422Z,25.11
2023-04-03T11:35:49.485Z,25.11
2023-04-03T11:36:49.586Z,25.11
2023-04-03T11:37:49.585Z,25.11
2023-04-03T11:38:49.658Z,25.10
2023-04-03T11:39:49.671Z,25.12
2023-04-03T11:40:49.767Z,25.10
2023-04-03T11:41:51.666Z,25.11
2023-04-03T11:42:49.948Z,25.10
2023-04-03T11:43:49.790Z,25.10
2023-04-03T11:44:49.791Z,25.10
2023-04-03T11:45:49.796Z,25.10
2023-04-03T11:46:50.505Z,25.09
2023-04-03T11:47:49.874Z,25.10
2023-04-03T11:48:49.765Z,25.09
2023-04-03T11:49:49.780Z,25.08
2023-04-03T11:50:49.729Z,25.09
2023-04-03T11:51:49.749Z,25.10
2023-04-03T11:52:49.749Z,25.09
2023-04-03T11:53:49.744Z,25.08
2023-04-03T11:54:49.715Z,25.07
2023-04-03T11:55:49.750Z,25.08
2023-04-03T11:56:49.786Z,25.08
2023-04-03T11:57:49.670Z,25.08
2023-04-03T11:58:49.769Z,25.08
2023-04-03T11:59:49.689Z,25.07
2023-04-03T12:00:49.692Z,25.07
2023-04-03T12:01:49.770Z,25.09
2023-04-03T12:02:54.406Z,25.09
2023-04-03T12:03:50.674Z,25.07
2023-04-03T12:04:49.617Z,25.08
2023-04-03T12:05:49.632Z,25.08
2023-04-03T12:06:49.624Z,25.09
2023-04-03T12:07:49.630Z,25.08
2023-04-03T12:08:49.642Z,25.08
2023-04-03T12:09:49.606Z,25.09
2023-04-03T12:10:49.589Z,25.09
2023-04-03T12:11:49.606Z,25.08
2023-04-03T12:12:49.615Z,25.10
2023-04-03T12:13:49.696Z,25.10
2023-04-03T12:14:49.800Z,25.10
2023-04-03T12:15:49.795Z,25.10
2023-04-03T12:16:49.866Z,25.10
2023-04-03T12:17:49.923Z,25.10
2023-04-03T12:18:49.926Z,25.10
2023-04-03T12:19:49.959Z,25.09
2023-04-03T12:20:49.982Z,25.09
2023-04-03T12:21:50.093Z,25.09
2023-04-03T12:22:50.120Z,25.08
2023-04-03T12:23:50.213Z,25.08
2023-04-03T12:24:50.273Z,25.06
2023-04-03T12:25:50.263Z,25.07
2023-04-03T12:26:50.333Z,25.07
2023-04-03T12:27:50.378Z,25.07
2023-04-03T12:28:50.493Z,25.06
2023-04-03T12:29:50.509Z,25.06
2023-04-03T12:30:50.684Z,25.06
2023-04-03T12:31:50.625Z,25.05
2023-04-03T12:32:54.061Z,25.06
2023-04-03T12:33:51.606Z,25.06
2023-04-03T12:34:50.643Z,25.06
2023-04-03T12:35:50.708Z,25.08
2023-04-03T12:36:50.652Z,25.07
2023-04-03T12:37:50.661Z,25.06
2023-04-03T12:38:50.628Z,25.06
2023-04-03T12:39:50.636Z,25.06
2023-04-03T12:40:50.639Z,25.06
2023-04-03T12:41:50.623Z,25.06
2023-04-03T12:42:50.696Z,25.05
2023-04-03T12:43:50.708Z,25.05
2023-04-03T12:44:50.726Z,25.05
2023-04-03T12:45:50.862Z,25.05
2023-04-03T12:46:51.101Z,25.05
2023-04-03T12:47:51.071Z,25.04
2023-04-03T12:48:51.004Z,25.04
2023-04-03T12:49:52.699Z,25.04
2023-04-03T12:50:51.105Z,25.03
2023-04-03T12:51:51.174Z,25.03
2023-04-03T12:52:51.206Z,25.03